Time;durP1;ratioP1;P1;durP2;ratioP2;P2;SDS_P1;SDS_P2;PMS_P1;PMS_P2;Temp;Humidity;BMP_temperature;BMP_pressure;BME280_temperature;BME280_humidity;BME280_pressure;Samples;Min_cycle;Max_cycle;Signal;HPM_P1;HPM_P2
2021/04/22 00:01:08;;;;;;;14.75;8.02;;;;;;;8.64;61.92;96193.28;5092492;28;20064;-68
2021/04/22 00:03:34;;;;;;;16.23;7.78;;;;;;;8.66;62.20;96194.69;5093112;28;20488;-68
2021/04/22 00:05:59;;;;;;;13.65;7.60;;;;;;;8.55;62.42;96195.41;5092512;28;20052;-68
2021/04/22 00:08:28;;;;;;;15.35;7.90;;;;;;;8.67;62.17;96198.91;5074503;28;20050;-69
2021/04/22 00:10:53;;;;;;;;;;;;;;;8.63;62.30;96195.13;5092578;28;20064;-68
2021/04/22 00:13:21;;;;;;;14.07;7.75;;;;;;;8.57;62.06;96185.53;5092421;28;20247;-68
2021/04/22 00:15:49;;;;;;;17.42;7.68;;;;;;;8.85;61.10;96189.34;5092912;28;20044;-69
2021/04/22 00:18:15;;;;;;;;;;;;;;;8.56;62.11;96191.78;5092550;28;20485;-68
2021/04/22 00:20:41;;;;;;;15.57;7.85;;;;;;;8.49;62.53;96187.66;5092083;28;19920;-69
2021/04/22 00:23:08;;;;;;;15.93;8.07;;;;;;;8.62;62.45;96192.72;5092628;28;20097;-68
2021/04/22 00:25:34;;;;;;;14.57;8.05;;;;;;;8.67;62.74;96191.03;5073965;28;20036;-68
2021/04/22 00:28:00;;;;;;;17.65;8.45;;;;;;;8.71;62.21;96186.13;5092284;28;20506;-69
2021/04/22 00:30:26;;;;;;;16.67;8.80;;;;;;;8.56;62.33;96194.41;5092166;28;20046;-69
2021/04/22 00:32:53;;;;;;;14.10;8.27;;;;;;;8.53;62.81;96184.38;5092086;28;20040;-68
2021/04/22 00:35:19;;;;;;;16.77;8.20;;;;;;;8.55;62.80;96190.16;5092364;28;20048;-68
2021/04/22 00:37:45;;;;;;;16.83;9.18;;;;;;;8.43;63.36;96186.72;5092490;28;20040;-69
2021/04/22 00:40:15;;;;;;;16.13;7.95;;;;;;;8.41;63.35;96189.56;5079577;28;20089;-69
2021/04/22 00:42:41;;;;;;;15.18;7.97;;;;;;;8.33;63.16;96191.66;5094422;28;20047;-69
2021/04/22 00:45:10;;;;;;;14.65;7.55;;;;;;;8.30;63.53;96189.50;5092503;28;20067;-68
2021/04/22 00:47:37;;;;;;;14.77;7.75;;;;;;;8.25;64.21;96194.59;5092213;28;20059;-69
2021/04/22 00:50:05;;;;;;;15.90;7.63;;;;;;;8.24;64.15;96185.13;5073377;28;20042;-68
2021/04/22 00:52:30;;;;;;;16.45;7.85;;;;;;;8.21;64.06;96190.81;5091448;28;20066;-69
2021/04/22 00:54:56;;;;;;;13.80;6.47;;;;;;;8.12;64.94;96195.53;5091834;28;20127;-69
2021/04/22 00:57:22;;;;;;;16.23;7.63;;;;;;;8.04;64.87;96191.41;5092333;28;20550;-69
2021/04/22 00:59:47;;;;;;;15.32;6.97;;;;;;;8.19;65.54;96204.13;5093712;28;20044;-68
2021/04/22 01:02:14;;;;;;;15.57;7.43;;;;;;;8.07;65.41;96203.25;5092001;28;20051;-69
2021/04/22 01:04:41;;;;;;;14.18;7.45;;;;;;;7.93;65.46;96202.63;5092254;28;20125;-69
2021/04/22 01:07:07;;;;;;;14.32;7.43;;;;;;;7.86;65.70;96205.31;5092250;28;20044;-69
2021/04/22 01:09:34;;;;;;;14.98;7.15;;;;;;;7.83;66.87;96202.34;5073701;28;20270;-68
2021/04/22 01:12:02;;;;;;;17.13;7.32;;;;;;;7.94;66.21;96200.81;5092086;28;20115;-68
2021/04/22 01:14:30;;;;;;;14.10;7.50;;;;;;;7.83;66.33;96197.91;5090451;28;20044;-68
2021/04/22 01:16:58;;;;;;;15.15;8.38;;;;;;;7.87;66.56;96206.13;5092183;28;20123;-68
2021/04/22 01:19:27;;;;;;;14.55;7.32;;;;;;;7.83;66.43;96202.34;5074043;28;20058;-68
2021/04/22 01:21:54;;;;;;;16.63;8.40;;;;;;;7.83;65.77;96207.56;5093842;28;20043;-69
2021/04/22 01:24:20;;;;;;;16.73;7.82;;;;;;;7.66;66.56;96206.56;5096895;28;20040;-68
2021/04/22 01:26:45;;;;;;;15.93;8.18;;;;;;;7.67;65.69;96208.16;5095595;28;20101;-68
2021/04/22 01:29:12;;;;;;;16.23;8.63;;;;;;;7.79;65.10;96211.63;5075834;28;20475;-68
2021/04/22 01:31:38;;;;;;;16.75;8.02;;;;;;;7.66;65.62;96223.06;5112640;28;20100;-69
2021/04/22 01:34:06;;;;;;;17.25;8.48;;;;;;;7.41;66.44;96212.59;5103658;28;20119;-68
2021/04/22 01:36:32;;;;;;;17.27;7.78;;;;;;;7.48;66.13;96216.00;5082010;28;20048;-68
2021/04/22 01:38:59;;;;;;;15.82;8.13;;;;;;;7.34;66.76;96220.53;5079806;28;20051;-68
2021/04/22 01:41:27;;;;;;;17.67;8.35;;;;;;;7.47;67.28;96218.78;5096392;28;20113;-69
2021/04/22 01:43:56;;;;;;;17.00;7.75;;;;;;;7.44;67.86;96233.13;5096164;28;20114;-68
2021/04/22 01:46:22;;;;;;;15.77;8.30;;;;;;;7.57;68.07;96225.13;5095858;28;20127;-69
2021/04/22 01:48:48;;;;;;;15.05;7.95;;;;;;;7.58;67.86;96224.13;5095861;28;20063;-70
2021/04/22 01:51:13;;;;;;;16.65;8.27;;;;;;;7.62;66.43;96225.28;5078151;28;20549;-69
2021/04/22 01:53:39;;;;;;;14.68;7.65;;;;;;;7.74;66.10;96221.97;5097398;28;20040;-70
2021/04/22 01:56:06;;;;;;;16.13;7.65;;;;;;;7.81;65.98;96220.88;5096585;28;20416;-70
2021/04/22 01:58:32;;;;;;;15.45;7.72;;;;;;;7.85;66.16;96216.00;5095730;28;20040;-69
2021/04/22 02:00:59;;;;;;;15.00;7.10;;;;;;;7.86;65.66;96223.66;5095921;28;20036;-68
2021/04/22 02:03:27;;;;;;;14.20;7.68;;;;;;;7.79;65.85;96222.09;5095811;28;20044;-68
2021/04/22 02:05:55;;;;;;;;;;;;;;;7.78;65.81;96221.31;5077593;28;20042;-67
2021/04/22 02:08:21;;;;;;;15.23;7.57;;;;;;;7.73;66.30;96225.59;5077085;28;19920;-68
2021/04/22 02:10:47;;;;;;;16.85;7.45;;;;;;;7.75;65.59;96221.75;5094972;28;20047;-69
2021/04/22 02:13:16;;;;;;;18.73;7.75;;;;;;;7.86;65.92;96222.88;5075968;28;20043;-67
2021/04/22 02:15:42;;;;;;;14.32;7.53;;;;;;;7.85;65.93;96221.25;5094405;28;20044;-67
2021/04/22 02:18:08;;;;;;;17.30;8.05;;;;;;;7.74;66.22;96221.97;5076969;28;20398;-68
2021/04/22 02:20:34;;;;;;;19.30;8.43;;;;;;;7.55;66.79;96223.78;5095213;28;20099;-68
2021/04/22 02:23:01;;;;;;;16.35;8.70;;;;;;;7.48;67.05;96225.63;5094824;28;20051;-68
2021/04/22 02:25:28;;;;;;;16.00;8.13;;;;;;;7.31;68.25;96212.28;5095060;28;20047;-68
2021/04/22 02:27:56;;;;;;;16.15;8.55;;;;;;;7.24;68.08;96225.44;5094949;28;20058;-69
2021/04/22 02:30:26;;;;;;;16.25;8.70;;;;;;;7.34;68.06;96233.59;5076564;28;20527;-68
2021/04/22 02:32:53;;;;;;;16.35;8.15;;;;;;;7.15;69.28;96242.41;5095083;28;20040;-68
2021/04/22 02:35:21;;;;;;;16.98;8.50;;;;;;;7.15;69.13;96236.38;5095011;28;20044;-69
2021/04/22 02:37:49;;;;;;;;;;;;;;;6.97;69.97;96235.31;5095318;28;20040;-69
2021/04/22 02:40:17;;;;;;;18.02;8.05;;;;;;;7.12;69.40;96244.66;5094802;28;19926;-69
2021/04/22 02:42:44;;;;;;;15.70;8.05;;;;;;;6.98;69.41;96239.50;5094161;28;20425;-69
2021/04/22 02:45:12;;;;;;;17.55;8.55;;;;;;;6.81;70.32;96246.28;5076120;28;20076;-69
2021/04/22 02:47:39;;;;;;;16.15;8.35;;;;;;;6.91;69.77;96240.59;5094644;28;20036;-69
2021/04/22 02:50:07;;;;;;;16.42;8.38;;;;;;;6.80;70.04;96239.44;5094876;28;20119;-69
2021/04/22 02:52:33;;;;;;;15.50;7.75;;;;;;;6.83;70.07;96233.78;5094346;28;20048;-68
2021/04/22 02:54:59;;;;;;;15.45;8.68;;;;;;;6.84;69.64;96233.59;5093884;28;20420;-68
2021/04/22 02:57:27;;;;;;;17.65;8.38;;;;;;;6.79;69.61;96233.41;5093938;28;20040;-68
2021/04/22 02:59:52;;;;;;;16.63;8.55;;;;;;;6.80;69.72;96218.53;5093280;28;20036;-68
2021/04/22 03:02:21;;;;;;;18.13;8.20;;;;;;;6.79;69.21;96224.78;5093284;28;20066;-71
2021/04/22 03:04:47;;;;;;;14.98;8.07;;;;;;;6.75;70.80;96226.19;5093702;28;20081;-69
2021/04/22 03:07:13;;;;;;;15.45;7.43;;;;;;;6.75;70.65;96227.00;5093744;28;20044;-69
2021/04/22 03:09:41;;;;;;;18.33;8.93;;;;;;;6.81;70.36;96233.19;5093963;28;20044;-69
2021/04/22 03:12:08;;;;;;;18.48;9.02;;;;;;;7.24;68.30;96224.63;5075830;28;20040;-69
2021/04/22 03:14:34;;;;;;;18.63;8.50;;;;;;;7.28;68.31;96239.69;5075614;28;20058;-69
2021/04/22 03:17:02;;;;;;;14.40;7.60;;;;;;;7.34;67.80;96230.19;5093561;28;20056;-68
2021/04/22 03:19:28;;;;;;;18.23;8.77;;;;;;;7.41;67.66;96235.38;5093455;28;20050;-69
2021/04/22 03:21:55;;;;;;;16.80;8.38;;;;;;;7.42;67.35;96237.75;5094087;28;20052;-68
2021/04/22 03:24:20;;;;;;;16.02;8.15;;;;;;;7.43;67.46;96228.13;5095131;28;20047;-69
2021/04/22 03:26:46;;;;;;;16.15;8.15;;;;;;;7.55;67.41;96229.81;5093806;28;20044;-68
2021/04/22 03:29:12;;;;;;;17.13;8.85;;;;;;;7.47;67.13;96234.50;5100818;28;20035;-68
2021/04/22 03:31:37;;;;;;;17.10;8.48;;;;;;;7.42;67.25;96236.97;5096879;28;20047;-69
2021/04/22 03:34:06;;;;;;;16.40;8.30;;;;;;;7.54;66.67;96235.25;5097800;28;20039;-69
2021/04/22 03:36:32;;;;;;;15.85;8.02;;;;;;;7.50;67.12;96228.84;5095020;28;20047;-69
2021/04/22 03:38:58;;;;;;;18.80;9.07;;;;;;;7.55;67.20;96237.66;5094430;28;20044;-68
2021/04/22 03:41:24;;;;;;;19.95;9.10;;;;;;;7.56;66.75;96246.31;5093212;28;20036;-68
2021/04/22 03:43:49;;;;;;;17.73;8.88;;;;;;;7.54;66.98;96248.34;5093381;28;20044;-68
2021/04/22 03:46:15;;;;;;;19.23;9.55;;;;;;;7.49;67.27;96248.19;5093468;28;20135;-69
2021/04/22 03:48:41;;;;;;;21.88;10.93;;;;;;;7.45;66.90;96253.03;5092953;28;20529;-68
2021/04/22 03:51:06;;;;;;;18.80;9.27;;;;;;;7.54;66.96;96251.75;5092576;28;20392;-69
2021/04/22 03:53:32;;;;;;;18.25;8.90;;;;;;;7.58;66.64;96252.13;5092381;28;20040;-68
2021/04/22 03:56:01;;;;;;;18.70;8.98;;;;;;;7.46;67.43;96252.03;5093611;28;20104;-68
2021/04/22 03:58:27;;;;;;;17.73;8.98;;;;;;;7.47;67.64;96256.22;5093634;28;20051;-68
2021/04/22 04:00:55;;;;;;;18.10;8.70;;;;;;;7.54;67.89;96259.63;5095030;28;20044;-69
2021/04/22 04:03:21;;;;;;;16.17;8.05;;;;;;;7.66;67.17;96251.06;5095779;28;20096;-68
2021/04/22 04:05:47;;;;;;;17.08;8.48;;;;;;;7.57;67.38;96259.16;5095327;28;20060;-68
2021/04/22 04:08:12;;;;;;;17.77;8.75;;;;;;;7.61;67.84;96252.50;5095306;28;20072;-69
2021/04/22 04:10:38;;;;;;;17.27;8.35;;;;;;;7.52;67.41;96263.44;5094218;28;20153;-68
2021/04/22 04:13:07;;;;;;;18.20;8.90;;;;;;;7.53;67.27;96265.88;5094350;28;20503;-69
2021/04/22 04:15:33;;;;;;;18.25;8.85;;;;;;;7.60;66.92;96271.84;5094541;28;20074;-69
2021/04/22 04:17:59;;;;;;;16.00;8.05;;;;;;;7.58;67.32;96271.25;5095160;28;20055;-69
2021/04/22 04:20:27;;;;;;;18.48;9.30;;;;;;;7.57;67.51;96272.25;5099890;28;20044;-68
2021/04/22 04:22:53;;;;;;;20.65;9.73;;;;;;;7.59;67.38;96278.09;5100514;28;20124;-69
2021/04/22 04:25:18;;;;;;;19.90;9.13;;;;;;;7.45;68.48;96284.44;5094161;28;20064;-69
2021/04/22 04:27:44;;;;;;;19.73;10.32;;;;;;;7.39;68.37;96274.84;5094245;28;20062;-69
2021/04/22 04:30:15;;;;;;;16.75;9.02;;;;;;;7.58;67.60;96275.66;5093467;28;20067;-69
2021/04/22 04:32:44;;;;;;;15.82;8.52;;;;;;;7.61;67.82;96277.88;5093410;28;20043;-69
2021/04/22 04:35:11;;;;;;;17.55;8.48;;;;;;;7.60;68.15;96281.50;5093792;28;20214;-68
2021/04/22 04:37:37;;;;;;;16.70;8.98;;;;;;;7.60;68.04;96284.13;5093603;28;20040;-69
2021/04/22 04:40:06;;;;;;;19.38;9.82;;;;;;;7.55;68.64;96284.78;5092575;28;20042;-69
2021/04/22 04:42:32;;;;;;;17.05;8.77;;;;;;;7.63;67.74;96281.88;5092866;28;20458;-68
2021/04/22 04:45:00;;;;;;;20.50;9.90;;;;;;;7.64;69.11;96280.03;5092963;28;20122;-69
2021/04/22 04:47:27;;;;;;;19.50;9.40;;;;;;;7.62;70.37;96290.75;5092962;28;20052;-69
2021/04/22 04:49:55;;;;;;;17.42;8.65;;;;;;;7.64;70.85;96298.38;5092360;28;20043;-68
2021/04/22 04:52:20;;;;;;;18.80;10.70;;;;;;;7.68;70.98;96314.47;5111413;22;20078;-65
2021/04/22 04:54:46;;;;;;;19.67;9.80;;;;;;;7.72;71.80;96315.66;5091761;28;20074;-66
2021/04/22 04:57:14;;;;;;;18.30;9.75;;;;;;;7.58;71.75;96325.41;5073435;28;20048;-67
2021/04/22 04:59:39;;;;;;;;;;;;;;;7.57;72.09;96324.63;5092114;28;20070;-67
2021/04/22 05:02:05;;;;;;;22.02;9.68;;;;;;;7.78;71.47;96328.66;5092237;28;20361;-66
2021/04/22 05:04:32;;;;;;;18.02;9.65;;;;;;;7.93;70.80;96317.06;5087086;28;20038;-73
2021/04/22 05:06:58;;;;;;;20.30;10.20;;;;;;;7.79;72.85;96326.84;5092299;28;20111;-74
2021/04/22 05:09:24;;;;;;;18.15;9.02;;;;;;;7.67;72.97;96334.63;5091586;28;20371;-77
2021/04/22 05:11:50;;;;;;;17.42;9.52;;;;;;;7.71;71.17;96335.00;5092275;28;20052;-77
2021/04/22 05:14:16;;;;;;;20.38;10.50;;;;;;;7.76;71.75;96343.81;5092692;28;20070;-77
2021/04/22 05:16:41;;;;;;;21.73;10.85;;;;;;;8.05;71.79;96350.19;5092722;28;20040;-77
2021/04/22 05:19:07;;;;;;;21.05;11.02;;;;;;;8.19;69.63;96357.94;5092041;28;20074;-73
2021/04/22 05:21:34;;;;;;;22.02;11.40;;;;;;;8.40;68.90;96354.94;5092306;28;20047;-72
2021/04/22 05:24:02;;;;;;;21.08;10.85;;;;;;;8.53;68.46;96359.22;5094140;28;20489;-71
2021/04/22 05:26:28;;;;;;;18.90;10.75;;;;;;;8.81;67.85;96361.31;5102961;28;20044;-76
2021/04/22 05:28:55;;;;;;;19.98;10.75;;;;;;;8.62;67.42;96353.47;5097986;28;20058;-73
2021/04/22 05:31:23;;;;;;;18.85;10.18;;;;;;;8.58;68.30;96368.03;5100634;28;20064;-77
2021/04/22 05:33:49;;;;;;;;;;;;;;;8.76;67.77;96361.97;5103085;28;20051;-77
2021/04/22 05:36:15;;;;;;;20.23;10.60;;;;;;;8.65;69.13;96378.44;5098604;28;19916;-77
2021/04/22 05:38:41;;;;;;;22.00;11.55;;;;;;;8.43;69.11;96372.03;5091893;28;20079;-72
2021/04/22 05:41:07;;;;;;;22.75;13.02;;;;;;;8.12;72.89;96386.81;5091472;28;20039;-72
2021/04/22 05:43:35;;;;;;;26.52;13.50;;;;;;;7.76;76.37;96369.19;5091682;28;20036;-72
2021/04/22 05:46:01;;;;;;;;;;;;;;;7.33;78.80;96362.84;5092712;28;20052;-74
2021/04/22 05:48:27;;;;;;;25.95;14.00;;;;;;;7.17;82.63;96375.63;5091806;28;19943;-71
2021/04/22 05:50:53;;;;;;;25.38;13.95;;;;;;;7.07;83.66;96371.66;5091614;28;20043;-74
2021/04/22 05:53:19;;;;;;;25.67;14.77;;;;;;;7.04;84.18;96372.06;5091545;28;20040;-75
2021/04/22 05:55:48;;;;;;;30.10;15.32;;;;;;;7.09;83.47;96359.16;5092751;28;20106;-76
2021/04/22 05:58:14;;;;;;;28.67;15.07;;;;;;;7.12;83.29;96367.59;5091863;28;20044;-69
2021/04/22 06:00:42;;;;;;;26.83;15.48;;;;;;;7.09;82.32;96364.38;5092153;28;20052;-76
2021/04/22 06:03:10;;;;;;;;;;;;;;;7.21;82.27;96361.09;5073985;28;20044;-75
2021/04/22 06:05:36;;;;;;;;;;;;;;;7.26;81.71;96371.72;5076789;28;19973;-75
2021/04/22 06:08:04;;;;;;;29.98;15.38;;;;;;;7.40;82.16;96375.88;5074675;28;19923;-76
2021/04/22 06:10:30;;;;;;;31.48;16.50;;;;;;;7.41;82.98;96382.72;5094608;28;20044;-77
2021/04/22 06:12:57;;;;;;;33.63;17.23;;;;;;;7.49;82.81;96379.84;5093281;28;20047;-77
2021/04/22 06:15:24;;;;;;;31.38;17.17;;;;;;;7.53;82.64;96386.28;5095805;28;20072;-76
2021/04/22 06:17:50;;;;;;;33.35;18.50;;;;;;;7.67;83.57;96389.59;5101834;28;20048;-76
2021/04/22 06:20:18;;;;;;;35.35;19.77;;;;;;;7.81;83.94;96383.25;5081790;28;20097;-74
2021/04/22 06:22:45;;;;;;;31.45;18.38;;;;;;;7.79;81.48;96397.56;5096142;28;20055;-76
2021/04/22 06:25:12;;;;;;;26.73;15.45;;;;;;;8.02;79.83;96403.03;5097461;28;20567;-76
2021/04/22 06:27:39;;;;;;;31.20;17.63;;;;;;;8.19;78.26;96398.03;5099194;28;20115;-76
2021/04/22 06:30:07;;;;;;;34.67;19.00;;;;;;;8.29;79.43;96400.97;5108269;28;20019;-79
2021/04/22 06:32:33;;;;;;;31.60;17.35;;;;;;;8.57;77.25;96400.53;5103062;28;20109;-75
2021/04/22 06:34:58;;;;;;;31.30;16.65;;;;;;;8.70;76.40;96404.00;5078266;28;20446;-72
2021/04/22 06:37:25;;;;;;;31.23;17.05;;;;;;;8.66;77.57;96407.09;5076791;28;20039;-69
2021/04/22 06:39:51;;;;;;;28.20;15.90;;;;;;;9.03;75.34;96404.41;5076268;28;20127;-75
2021/04/22 06:42:20;;;;;;;29.88;16.55;;;;;;;9.14;72.99;96408.13;5095337;28;20043;-80
2021/04/22 06:44:46;;;;;;;27.27;15.52;;;;;;;9.00;73.79;96410.13;5095702;28;20329;-68
2021/04/22 06:47:12;;;;;;;27.17;16.45;;;;;;;8.96;72.28;96416.81;5095058;28;20521;-73
2021/04/22 06:49:38;;;;;;;25.58;14.75;;;;;;;9.09;72.48;96416.66;5094952;28;20032;-72
2021/04/22 06:52:05;;;;;;;26.95;14.20;;;;;;;9.13;74.23;96417.81;5094338;28;20466;-70
2021/04/22 06:54:33;;;;;;;29.38;16.77;;;;;;;9.18;73.42;96427.66;5096070;28;20091;-74
2021/04/22 06:57:01;;;;;;;25.50;15.80;;;;;;;9.24;71.81;96433.84;5093143;28;20040;-72
2021/04/22 06:59:27;;;;;;;;;;;;;;;8.90;73.03;96441.31;5093072;28;20434;-70
2021/04/22 07:01:52;;;;;;;24.55;14.68;;;;;;;9.05;70.05;96444.38;5076743;28;20015;-74
2021/04/22 07:04:19;;;;;;;24.83;14.93;;;;;;;8.78;72.53;96446.50;5095702;28;20040;-74
2021/04/22 07:06:45;;;;;;;27.88;16.30;;;;;;;8.81;71.82;96455.75;5094131;28;20039;-75
2021/04/22 07:09:13;;;;;;;29.15;17.27;;;;;;;9.07;74.12;96455.44;5096290;28;20037;-75
2021/04/22 07:11:39;;;;;;;;;;;;;;;9.33;72.09;96450.91;5097781;28;20238;-74
2021/04/22 07:14:04;;;;;;;25.60;15.65;;;;;;;9.60;69.96;96460.03;5096301;28;19916;-76
2021/04/22 07:16:30;;;;;;;27.02;14.38;;;;;;;10.09;67.86;96463.38;5094861;28;20047;-72
2021/04/22 07:19:11;;;;;;;25.92;15.10;;;;;;;10.06;67.16;96463.78;5095424;28;20101;-75
2021/04/22 07:21:37;;;;;;;32.05;16.60;;;;;;;10.00;67.34;96460.25;5018059;28;20088;-73
2021/04/22 07:24:03;;;;;;;25.75;15.30;;;;;;;10.11;67.48;96465.75;5028056;28;20060;-71
2021/04/22 07:26:31;;;;;;;23.83;14.85;;;;;;;10.21;67.11;96466.00;5000648;28;20456;-70
2021/04/22 07:28:57;;;;;;;25.25;14.75;;;;;;;10.68;64.46;96464.22;5030048;28;20171;-74
2021/04/22 07:31:23;;;;;;;23.70;14.27;;;;;;;10.84;62.44;96473.25;5017534;28;20042;-67
2021/04/22 07:33:49;;;;;;;22.52;14.02;;;;;;;10.73;62.10;96474.06;5027123;28;20065;-69
2021/04/22 07:36:17;;;;;;;25.67;15.45;;;;;;;10.30;62.79;96475.19;5030666;28;20045;-72
2021/04/22 07:38:43;;;;;;;26.98;16.10;;;;;;;10.34;64.61;96476.34;5030667;28;20084;-73
2021/04/22 07:41:09;;;;;;;26.58;14.13;;;;;;;11.08;62.00;96476.66;5030399;28;20069;-72
2021/04/22 07:43:39;;;;;;;21.35;13.75;;;;;;;11.55;58.55;96476.53;5015770;28;20147;-73
2021/04/22 07:46:07;;;;;;;22.52;14.23;;;;;;;11.16;59.94;96471.03;5012693;28;20104;-75
2021/04/22 07:48:33;;;;;;;25.83;15.43;;;;;;;11.63;60.33;96472.72;5013855;28;20492;-74
2021/04/22 07:50:59;;;;;;;24.35;14.82;;;;;;;11.44;58.00;96480.00;5021771;28;20038;-74
2021/04/22 07:53:25;;;;;;;24.30;15.05;;;;;;;12.21;57.45;96479.53;5019129;28;20428;-73
2021/04/22 07:55:52;;;;;;;23.50;14.10;;;;;;;12.77;55.31;96481.22;5030420;28;20567;-75
2021/04/22 07:58:18;;;;;;;27.92;13.27;;;;;;;12.79;52.76;96473.84;5033617;28;20044;-76
2021/04/22 08:00:46;;;;;;;23.60;13.80;;;;;;;12.22;55.50;96475.91;5074710;28;20048;-70
2021/04/22 08:03:17;;;;;;;22.95;14.18;;;;;;;12.53;56.17;96482.44;5092198;28;20078;-71
2021/04/22 08:05:45;;;;;;;23.63;14.43;;;;;;;12.97;52.12;96478.06;5097878;28;20055;-78
2021/04/22 08:08:12;;;;;;;21.65;13.35;;;;;;;12.37;56.22;96484.03;5097315;28;20047;-79
2021/04/22 08:10:40;;;;;;;21.87;14.03;;;;;;;12.13;56.66;96483.38;5099008;28;20036;-70
2021/04/22 08:13:09;;;;;;;23.80;13.38;;;;;;;11.64;56.14;96485.66;5075228;28;20289;-75
2021/04/22 08:15:38;;;;;;;23.88;14.38;;;;;;;11.88;58.89;96490.84;5075205;28;20575;-81
2021/04/22 08:18:04;;;;;;;22.38;13.43;;;;;;;12.70;55.26;96495.59;5092792;28;20032;-75
2021/04/22 08:20:30;;;;;;;23.05;13.43;;;;;;;12.22;56.26;96492.50;5092229;28;20040;-72
2021/04/22 08:22:59;;;;;;;22.83;14.18;;;;;;;12.16;56.11;96496.13;5073540;28;20404;-72
2021/04/22 08:25:28;;;;;;;26.60;13.93;;;;;;;12.31;56.37;96498.97;5092492;28;20043;-73
2021/04/22 08:27:55;;;;;;;24.27;15.60;;;;;;;11.85;57.95;96496.63;5092253;28;20040;-73
2021/04/22 08:30:25;;;;;;;22.83;14.05;;;;;;;12.02;57.39;96508.78;5091729;28;20036;-71
2021/04/22 08:32:51;;;;;;;26.85;14.70;;;;;;;12.11;56.37;96511.84;5091472;28;20052;-74
2021/04/22 08:35:17;;;;;;;23.80;13.85;;;;;;;12.31;55.85;96514.00;5087094;28;20110;-70
2021/04/22 08:37:45;;;;;;;24.45;13.50;;;;;;;12.19;56.31;96516.72;5090683;28;20124;-69
2021/04/22 08:40:13;;;;;;;23.50;14.38;;;;;;;12.64;56.00;96518.47;5090559;28;20188;-72
2021/04/22 08:42:41;;;;;;;22.23;14.40;;;;;;;12.55;56.61;96519.94;5092361;28;20047;-73
2021/04/22 08:45:09;;;;;;;25.02;14.40;;;;;;;12.61;55.88;96521.63;5074420;28;20048;-76
2021/04/22 08:47:37;;;;;;;22.98;15.15;;;;;;;11.87;55.86;96520.88;5074524;28;20445;-68
2021/04/22 08:50:06;;;;;;;25.42;15.55;;;;;;;12.04;58.34;96527.00;5073628;28;20044;-70
2021/04/22 08:52:34;;;;;;;23.38;13.57;;;;;;;12.74;55.68;96531.03;5092066;28;20445;-68
2021/04/22 08:55:00;;;;;;;23.60;14.00;;;;;;;13.36;51.21;96531.69;5092594;28;20052;-72
2021/04/22 08:57:26;;;;;;;24.58;14.55;;;;;;;13.55;51.09;96531.38;5092085;28;20051;-73
2021/04/22 08:59:53;;;;;;;23.52;14.63;;;;;;;12.94;52.14;96525.28;5091698;28;20044;-67
2021/04/22 09:02:20;;;;;;;23.83;14.43;;;;;;;12.66;52.39;96529.63;5091645;28;20042;-67
2021/04/22 09:04:46;;;;;;;24.42;14.25;;;;;;;12.88;52.24;96537.59;5092606;28;20091;-69
2021/04/22 09:07:12;;;;;;;25.85;15.07;;;;;;;13.52;50.35;96532.69;5091841;28;20065;-70
2021/04/22 09:09:38;;;;;;;29.48;16.75;;;;;;;13.56;49.90;96532.97;5073405;28;20036;-68
2021/04/22 09:12:14;;;;;;;24.33;14.93;;;;;;;13.70;48.29;96534.19;5096438;28;20043;-68
2021/04/22 09:14:51;;;;;;;26.02;15.65;;;;;;;13.14;50.47;96541.41;5074966;28;20514;-67
2021/04/22 09:17:17;;;;;;;23.58;14.23;;;;;;;13.42;49.92;96547.59;5092540;28;20055;-72
2021/04/22 09:19:43;;;;;;;23.95;14.05;;;;;;;13.21;50.98;96542.06;5092198;28;20116;-75
2021/04/22 09:22:10;;;;;;;24.90;13.00;;;;;;;13.32;49.81;96549.06;5073867;28;20040;-71
2021/04/22 09:24:36;;;;;;;23.33;14.00;;;;;;;12.85;51.99;96552.06;5092043;28;20524;-75
2021/04/22 09:27:04;;;;;;;24.38;14.40;;;;;;;12.96;52.23;96550.38;5092638;28;20040;-72
2021/04/22 09:29:34;;;;;;;23.25;13.77;;;;;;;13.33;52.25;96550.66;5091542;28;20034;-67
2021/04/22 09:32:08;;;;;;;23.40;13.75;;;;;;;13.10;53.00;96556.13;5091823;28;20032;-70
2021/04/22 09:34:34;;;;;;;24.33;14.13;;;;;;;13.20;51.58;96551.00;5091989;28;20051;-74
2021/04/22 09:37:03;;;;;;;21.90;13.02;;;;;;;13.03;51.31;96555.50;5092149;28;20043;-71
2021/04/22 09:39:31;;;;;;;25.73;13.27;;;;;;;13.14;51.76;96565.19;5103955;28;20032;-70
2021/04/22 09:41:59;;;;;;;22.08;12.55;;;;;;;13.10;50.80;96561.41;5105500;28;20040;-72
2021/04/22 09:44:26;;;;;;;23.92;14.02;;;;;;;12.69;52.45;96566.06;5105305;28;20044;-70
2021/04/22 09:47:03;;;;;;;23.73;12.48;;;;;;;13.32;52.04;96564.91;5085918;28;20054;-69
2021/04/22 09:49:32;;;;;;;24.92;13.40;;;;;;;13.54;50.99;96566.78;5078922;28;20128;-72
2021/04/22 09:52:06;;;;;;;22.85;13.95;;;;;;;13.56;50.50;96567.31;5109040;28;20040;-71
2021/04/22 09:54:42;;;;;;;20.00;13.30;;;;;;;13.48;49.83;96567.75;5077549;28;20351;-71
2021/04/22 09:57:11;;;;;;;21.23;13.27;;;;;;;14.12;48.02;96567.97;5077518;28;20062;-72
2021/04/22 09:59:42;;;;;;;26.67;14.60;;;;;;;13.98;48.46;96569.41;5077293;28;20036;-70
2021/04/22 10:02:08;;;;;;;22.80;13.85;;;;;;;13.50;50.74;96576.22;5095586;28;20131;-71
2021/04/22 10:04:35;;;;;;;23.30;13.77;;;;;;;13.64;50.38;96572.19;5095494;28;20507;-71
2021/04/22 10:07:02;;;;;;;24.75;14.18;;;;;;;13.88;48.61;96573.56;5095367;28;20043;-73
2021/04/22 10:09:33;;;;;;;24.85;14.48;;;;;;;13.92;49.39;96574.63;5090682;28;20055;-69
2021/04/22 10:12:02;;;;;;;22.65;14.32;;;;;;;13.77;49.03;96568.38;5087767;28;20143;-72
2021/04/22 10:14:31;;;;;;;27.27;14.57;;;;;;;13.52;49.16;96574.97;5096564;28;20043;-72
2021/04/22 10:16:57;;;;;;;26.23;14.98;;;;;;;13.30;50.20;96567.00;5095608;28;20044;-72
2021/04/22 10:19:25;;;;;;;24.98;15.77;;;;;;;13.71;49.32;96572.00;5094572;28;20107;-71
2021/04/22 10:21:51;;;;;;;25.65;15.35;;;;;;;14.20;47.00;96572.81;5095087;28;20051;-72
2021/04/22 10:24:16;;;;;;;25.38;15.00;;;;;;;14.00;48.32;96572.63;5094062;28;20560;-74
2021/04/22 10:26:47;;;;;;;23.95;15.23;;;;;;;14.32;47.27;96562.88;5094595;28;20514;-72
2021/04/22 10:29:13;;;;;;;25.13;16.15;;;;;;;14.16;46.91;96577.81;5094758;28;20450;-71
2021/04/22 10:31:39;;;;;;;28.00;16.55;;;;;;;13.54;48.46;96580.00;5095006;28;20055;-71
2021/04/22 10:34:09;;;;;;;23.83;14.82;;;;;;;13.24;50.40;96581.19;5094692;28;20117;-71
2021/04/22 10:36:37;;;;;;;25.90;15.77;;;;;;;13.20;49.46;96574.75;5075125;28;20048;-70
2021/04/22 10:39:05;;;;;;;26.52;15.68;;;;;;;12.83;51.04;96572.63;5093217;28;20036;-69
2021/04/22 10:41:32;;;;;;;26.33;16.67;;;;;;;12.31;52.37;96575.47;5075601;28;20141;-72
2021/04/22 10:44:00;;;;;;;26.65;17.13;;;;;;;12.38;52.06;96572.72;5094575;28;20338;-72
2021/04/22 10:46:26;;;;;;;27.35;16.77;;;;;;;12.82;51.59;96584.25;5076351;28;20139;-72
2021/04/22 10:48:51;;;;;;;25.75;15.85;;;;;;;13.01;50.75;96576.06;5093385;28;20131;-72
2021/04/22 10:51:18;;;;;;;27.00;16.58;;;;;;;13.12;49.04;96578.59;5093705;28;20514;-72
2021/04/22 10:53:44;;;;;;;31.58;17.25;;;;;;;12.73;50.31;96582.25;5117118;22;20040;-75
2021/04/22 10:56:12;;;;;;;25.98;16.45;;;;;;;12.59;51.56;96581.75;5099844;28;20032;-76
2021/04/22 10:58:40;;;;;;;26.63;16.10;;;;;;;13.10;50.10;96577.25;5047772;28;20109;-74
2021/04/22 11:01:09;;;;;;;29.23;16.42;;;;;;;13.26;49.88;96576.47;5095017;28;20040;-72
2021/04/22 11:03:39;;;;;;;26.30;15.93;;;;;;;13.32;50.66;96586.06;5098298;28;20040;-66
2021/04/22 11:06:07;;;;;;;25.33;15.82;;;;;;;13.67;49.02;96574.34;5078982;28;20047;-68
2021/04/22 11:08:36;;;;;;;27.30;15.70;;;;;;;13.45;49.46;96576.97;5080158;28;20036;-69
2021/04/22 11:11:16;;;;;;;24.17;14.95;;;;;;;13.85;48.34;96568.75;5101564;28;20046;-78
2021/04/22 11:13:44;;;;;;;25.05;15.02;;;;;;;14.14;46.96;96573.81;5100126;28;20151;-76
2021/04/22 11:16:11;;;;;;;27.80;15.25;;;;;;;14.04;47.52;96571.84;5097366;28;20043;-67
2021/04/22 11:18:41;;;;;;;24.98;15.95;;;;;;;13.53;49.27;96567.84;5099107;28;20052;-74
2021/04/22 11:21:21;;;;;;;26.50;14.63;;;;;;;13.71;48.43;96567.50;5098527;28;20036;-72
2021/04/22 11:23:52;;;;;;;26.67;15.18;;;;;;;13.66;47.97;96565.59;5100195;28;20042;-73
2021/04/22 11:26:24;;;;;;;24.42;15.40;;;;;;;13.50;47.50;96563.03;5081935;28;20055;-73
2021/04/22 11:28:53;;;;;;;26.45;15.10;;;;;;;13.50;48.03;96561.19;5100466;28;20120;-70